Terminal Aerodrome Forecast
Issued by NWS

Home | Current Version | Previous Version | Text Only | Print | Product List | Glossary On
Versions: 1 2 3 4 5 6 7 8 9 10 11 12 13 14 15
000
FTUS43 KDVN 202300
TAFBRL
TAF
KBRL 202320Z 2100/2124 20012KT P6SM SCT120 BKN250
     FM211100 22005KT 5SM BR VCSH SCT050 BKN080
     FM211500 25007KT 6SM BR VCSH BKN035
     FM211800 26008KT 4SM -TSRA BKN025CB
     FM212200 30011KT P6SM BKN040=

USA.gov is the U.S. government's official web portal to all federal, state and local government web resources and services.